Terminal Aerodrome Forecast
Issued by NWS Wakefield, VA

Home | Current Version | Previous Version | Text Only | Print | Product List | Glossary On
Versions: 1 2 3 4 5 6 7 8 9 10 11 12 13 14 15 16
000
FTUS41 KAKQ 222300
TAFORF
TAF
KORF 222339Z 2300/2324 03008KT P6SM SCT100
     FM230500 05004KT P6SM SCT050 BKN100
     FM230900 05004KT P6SM BKN020 OVC050
     FM231500 06009KT P6SM BKN040=

USA.gov is the U.S. government's official web portal to all federal, state and local government web resources and services.